Time;durP1;ratioP1;P1;durP2;ratioP2;P2;SDS_P1;SDS_P2;PMS_P1;PMS_P2;Temp;Humidity;BMP_temperature;BMP_pressure;BME280_temperature;BME280_humidity;BME280_pressure;Samples;Min_cycle;Max_cycle;Signal;HPM_P1;HPM_P2
2024/01/29 00:04:11;;;;;;;2.90;1.27;;;;;;;3.39;100.00;99748.00;15289272;19;20463;-58
2024/01/29 00:09:35;;;;;;;1.60;1.20;;;;;;;3.44;100.00;99745.09;15287683;19;20090;-56
2024/01/29 00:15:02;;;;;;;2.22;1.50;;;;;;;3.51;100.00;99738.47;15289764;19;20014;-56
2024/01/29 00:20:27;;;;;;;1.75;1.30;;;;;;;3.50;100.00;99736.75;15282729;19;20025;-52
2024/01/29 00:25:52;;;;;;;2.72;1.38;;;;;;;3.42;100.00;99731.00;15285013;19;20489;-55
2024/01/29 00:31:21;;;;;;;4.00;1.63;;;;;;;3.51;100.00;99722.50;15282611;19;20011;-53
2024/01/29 00:36:47;;;;;;;1.77;1.48;;;;;;;3.54;100.00;99725.00;15286481;19;20027;-56
2024/01/29 00:42:12;;;;;;;2.58;1.27;;;;;;;3.66;100.00;99724.31;15280517;19;20027;-55
2024/01/29 00:47:46;;;;;;;2.58;1.27;;;;;;;3.67;100.00;99711.84;15285415;19;20573;-57
2024/01/29 00:53:11;;;;;;;2.20;1.50;;;;;;;3.64;100.00;99704.88;15288289;19;20400;-55
2024/01/29 00:58:35;;;;;;;3.40;1.20;;;;;;;3.68;100.00;99703.78;15284940;19;20029;-57
2024/01/29 01:04:02;;;;;;;1.80;1.20;;;;;;;3.69;100.00;99710.84;15288912;19;20713;-56
2024/01/29 01:09:27;;;;;;;2.20;1.40;;;;;;;3.69;100.00;99701.97;15300276;19;20853;-52
2024/01/29 01:14:52;;;;;;;1.65;1.25;;;;;;;3.77;100.00;99702.38;15301821;19;20018;-55
2024/01/29 01:20:19;;;;;;;2.15;1.30;;;;;;;3.84;100.00;99702.91;15293639;19;20435;-57
2024/01/29 01:25:44;;;;;;;2.67;1.40;;;;;;;3.79;100.00;99700.50;15298192;19;20021;-56
2024/01/29 01:31:10;;;;;;;1.90;1.40;;;;;;;3.78;100.00;99703.25;15291138;19;20399;-55
2024/01/29 01:36:37;;;;;;;1.48;1.23;;;;;;;3.91;100.00;99704.28;15297985;19;20021;-55
2024/01/29 01:42:02;;;;;;;2.63;1.35;;;;;;;3.91;100.00;99703.41;15290932;19;20471;-56
2024/01/29 01:47:33;;;;;;;2.17;1.20;;;;;;;4.03;100.00;99693.88;15291943;19;20014;-58
2024/01/29 01:53:00;;;;;;;1.73;1.13;;;;;;;4.02;100.00;99690.31;15300742;19;20599;-54
2024/01/29 01:58:26;;;;;;;3.35;1.30;;;;;;;4.09;100.00;99683.72;15297478;19;20017;-55
2024/01/29 02:03:51;;;;;;;1.40;1.23;;;;;;;4.24;100.00;99673.94;15293446;19;20022;-58
2024/01/29 02:09:18;;;;;;;2.63;1.40;;;;;;;4.23;100.00;99666.88;15294342;19;20041;-56
2024/01/29 02:14:43;;;;;;;1.67;1.27;;;;;;;4.27;100.00;99663.09;15295945;19;20085;-57
2024/01/29 02:20:07;;;;;;;1.45;1.30;;;;;;;4.32;100.00;99655.66;15287001;19;20021;-57
2024/01/29 02:25:36;;;;;;;2.50;1.50;;;;;;;4.20;100.00;99656.38;15294379;19;20017;-56
2024/01/29 02:31:01;;;;;;;1.95;1.23;;;;;;;4.15;100.00;99654.00;15284141;19;20014;-55
2024/01/29 02:36:26;;;;;;;1.60;1.20;;;;;;;4.25;100.00;99665.00;15284282;19;20017;-56
2024/01/29 02:41:53;;;;;;;1.75;1.30;;;;;;;4.36;100.00;99650.16;15286925;19;20014;-55
2024/01/29 02:47:24;;;;;;;1.85;1.20;;;;;;;4.29;100.00;99644.31;15291005;19;20082;-54
2024/01/29 02:52:49;;;;;;;1.93;1.10;;;;;;;4.26;100.00;99634.69;15287069;19;20029;-54
2024/01/29 02:58:16;;;;;;;1.65;1.00;;;;;;;4.23;100.00;99634.88;15286591;19;20251;-57
2024/01/29 03:03:41;;;;;;;1.27;1.00;;;;;;;4.16;100.00;99629.03;15288445;19;20086;-57
2024/01/29 03:09:05;;;;;;;2.78;1.48;;;;;;;4.10;100.00;99621.41;15286174;19;20475;-55
2024/01/29 03:14:32;;;;;;;1.77;1.15;;;;;;;4.06;100.00;99608.34;15290581;19;20014;-53
2024/01/29 03:19:57;;;;;;;1.88;1.10;;;;;;;4.09;100.00;99605.50;15290413;19;20093;-55
2024/01/29 03:25:22;;;;;;;2.50;1.20;;;;;;;4.08;100.00;99609.97;15292421;19;20026;-54
2024/01/29 03:30:49;;;;;;;1.65;1.08;;;;;;;4.05;100.00;99609.31;15281624;19;20039;-55
2024/01/29 03:36:14;;;;;;;1.40;0.93;;;;;;;3.98;100.00;99606.13;15287663;19;20020;-56
2024/01/29 03:41:38;;;;;;;1.30;1.00;;;;;;;3.92;100.00;99607.34;15274715;19;20045;-54
2024/01/29 03:47:05;;;;;;;1.77;1.17;;;;;;;3.98;100.00;99601.66;15286093;19;20546;-57
2024/01/29 03:52:30;;;;;;;1.73;1.20;;;;;;;3.97;100.00;99607.94;15284991;19;20749;-56
2024/01/29 03:57:55;;;;;;;1.77;1.05;;;;;;;3.96;100.00;99600.88;15281212;19;20492;-57
2024/01/29 04:03:22;;;;;;;1.00;0.90;;;;;;;4.06;100.00;99590.53;15288589;19;20463;-52
2024/01/29 04:08:47;;;;;;;1.55;1.20;;;;;;;3.99;100.00;99594.53;15280338;19;20024;-53
2024/01/29 04:14:12;;;;;;;1.83;1.08;;;;;;;3.96;100.00;99586.69;15280812;19;20368;-53
2024/01/29 04:19:43;;;;;;;1.05;0.90;;;;;;;3.99;100.00;99584.69;15287620;19;20475;-53
2024/01/29 04:25:08;;;;;;;1.17;0.80;;;;;;;4.08;100.00;99582.44;15287504;19;20400;-55
2024/01/29 04:30:33;;;;;;;1.00;0.90;;;;;;;4.08;100.00;99569.09;15286801;19;20353;-57
2024/01/29 04:36:00;;;;;;;1.38;0.98;;;;;;;4.06;100.00;99582.53;15287371;19;20029;-53
2024/01/29 04:41:25;;;;;;;1.17;0.90;;;;;;;4.12;100.00;99574.16;15280728;19;20037;-56
2024/01/29 04:46:50;;;;;;;1.30;0.90;;;;;;;4.27;100.00;99580.41;15273742;19;20839;-54
2024/01/29 04:52:17;;;;;;;1.38;0.90;;;;;;;4.42;100.00;99581.28;15275195;19;20014;-53
2024/01/29 04:57:43;;;;;;;1.00;0.90;;;;;;;4.40;100.00;99574.31;15282082;19;20018;-57
2024/01/29 05:03:09;;;;;;;1.38;0.80;;;;;;;4.48;100.00;99582.72;15282715;19;20022;-56
2024/01/29 05:08:36;;;;;;;0.70;0.70;;;;;;;4.45;100.00;99585.56;15286811;19;20027;-54
2024/01/29 05:14:02;;;;;;;1.00;0.90;;;;;;;4.50;100.00;99585.28;15285066;19;20017;-52
2024/01/29 05:19:26;;;;;;;1.20;0.90;;;;;;;4.54;100.00;99578.81;15307882;19;20023;-58
2024/01/29 05:24:53;;;;;;;1.20;0.90;;;;;;;4.60;100.00;99584.63;15281787;19;20504;-58
2024/01/29 05:30:13;;;;;;;1.90;0.75;;;;;;;4.54;100.00;99579.66;15282159;19;20025;-58
2024/01/29 05:35:37;;;;;;;0.93;0.80;;;;;;;4.54;100.00;99585.00;15278679;19;20029;-57
2024/01/29 05:41:04;;;;;;;1.23;0.75;;;;;;;4.59;100.00;99587.38;15281862;19;20018;-57
2024/01/29 05:46:29;;;;;;;1.10;0.88;;;;;;;4.50;100.00;99591.47;15277811;19;20037;-56
2024/01/29 05:51:54;;;;;;;0.82;0.73;;;;;;;4.44;100.00;99589.16;15282970;19;20085;-58
2024/01/29 05:57:21;;;;;;;1.17;0.80;;;;;;;4.47;100.00;99581.00;15299040;19;20424;-58
2024/01/29 06:02:48;;;;;;;1.05;0.90;;;;;;;4.50;100.00;99585.28;15287630;19;20015;-57
2024/01/29 06:08:13;;;;;;;0.95;0.77;;;;;;;4.52;100.00;99594.03;15294415;19;20015;-56
2024/01/29 06:13:41;;;;;;;1.13;1.00;;;;;;;4.50;100.00;99587.94;15296762;19;20094;-57
2024/01/29 06:19:05;;;;;;;1.15;1.00;;;;;;;4.50;100.00;99594.16;15292915;19;20029;-57
2024/01/29 06:24:31;;;;;;;1.05;0.70;;;;;;;4.50;100.00;99582.59;15287558;19;20024;-57
2024/01/29 06:29:58;;;;;;;1.33;0.70;;;;;;;4.47;100.00;99592.50;15290855;19;20070;-57
2024/01/29 06:35:23;;;;;;;1.42;0.90;;;;;;;4.50;100.00;99582.59;15294292;19;20487;-57
2024/01/29 06:40:48;;;;;;;0.60;0.60;;;;;;;4.51;100.00;99595.88;15291216;19;20018;-57
2024/01/29 06:46:22;;;;;;;1.88;0.93;;;;;;;4.38;100.00;99609.09;15294222;19;20027;-57
2024/01/29 06:51:47;;;;;;;2.35;0.90;;;;;;;4.35;100.00;99621.75;15290841;19;20054;-56
2024/01/29 06:57:12;;;;;;;0.98;0.70;;;;;;;4.18;100.00;99625.44;15293837;19;20003;-55
2024/01/29 07:02:40;;;;;;;1.08;0.65;;;;;;;4.09;100.00;99637.50;15280501;19;20038;-52
2024/01/29 07:08:05;;;;;;;0.88;0.77;;;;;;;4.09;100.00;99637.50;15292251;19;20371;-54
2024/01/29 07:13:31;;;;;;;1.00;0.90;;;;;;;4.03;100.00;99635.19;15288360;19;20010;-54
2024/01/29 07:18:58;;;;;;;0.70;0.70;;;;;;;4.05;100.00;99642.16;15288155;19;20043;-54
2024/01/29 07:24:23;;;;;;;1.45;0.90;;;;;;;4.13;100.00;99636.38;15288866;19;20468;-55
2024/01/29 07:29:47;;;;;;;0.80;0.80;;;;;;;4.22;100.00;99650.97;15282820;19;20014;-53
2024/01/29 07:35:15;;;;;;;0.90;0.80;;;;;;;4.26;100.00;99661.38;15289329;19;20015;-55
2024/01/29 07:40:39;;;;;;;1.55;0.90;;;;;;;4.25;100.00;99651.66;15288994;19;20085;-58
2024/01/29 07:46:05;;;;;;;1.45;0.82;;;;;;;4.32;100.00;99650.31;15287550;19;20353;-55
2024/01/29 07:51:32;;;;;;;1.00;0.90;;;;;;;4.39;100.00;99639.31;15284565;19;20374;-57
2024/01/29 07:56:57;;;;;;;1.25;0.75;;;;;;;4.39;100.00;99634.81;15288364;19;20420;-53
2024/01/29 08:02:22;;;;;;;0.70;0.70;;;;;;;4.45;100.00;99630.91;15282032;19;20668;-56
2024/01/29 08:07:50;;;;;;;2.60;0.95;;;;;;;4.63;100.00;99629.81;15286913;19;20405;-54
2024/01/29 08:13:14;;;;;;;0.80;0.70;;;;;;;4.79;100.00;99631.53;15289307;19;20093;-58
2024/01/29 08:18:40;;;;;;;2.13;1.00;;;;;;;4.92;100.00;99637.84;15287951;19;20463;-53
2024/01/29 08:24:07;;;;;;;0.95;0.88;;;;;;;5.06;100.00;99634.28;15289263;19;20017;-54
2024/01/29 08:29:32;;;;;;;3.47;0.93;;;;;;;5.24;100.00;99626.94;15285066;19;20539;-54
2024/01/29 08:34:56;;;;;;;0.73;0.70;;;;;;;5.33;100.00;99619.31;15276707;19;20561;-56
2024/01/29 08:40:23;;;;;;;0.80;0.80;;;;;;;5.45;100.00;99621.19;15285411;19;20021;-55
2024/01/29 08:45:48;;;;;;;1.33;0.80;;;;;;;5.62;100.00;99622.78;15286235;19;20018;-56
2024/01/29 08:51:14;;;;;;;2.47;0.70;;;;;;;5.75;100.00;99630.84;15286893;19;20022;-52
2024/01/29 08:56:41;;;;;;;1.08;0.90;;;;;;;5.90;100.00;99622.75;15284953;19;20010;-52
2024/01/29 09:02:07;;;;;;;0.98;0.60;;;;;;;6.04;100.00;99625.41;15280818;19;20089;-55
2024/01/29 09:07:31;;;;;;;1.10;0.70;;;;;;;6.13;100.00;99627.47;15278825;19;20618;-53
2024/01/29 09:12:58;;;;;;;1.30;0.80;;;;;;;6.30;100.00;99638.84;15285774;19;20422;-58
2024/01/29 09:18:23;;;;;;;1.10;1.00;;;;;;;6.42;100.00;99634.47;15290027;19;20022;-56
2024/01/29 09:23:48;;;;;;;1.42;0.80;;;;;;;6.52;100.00;99640.06;15287034;19;20021;-57
2024/01/29 09:29:15;;;;;;;1.00;0.77;;;;;;;6.57;100.00;99633.44;15300141;19;20347;-56
2024/01/29 09:34:40;;;;;;;0.95;0.80;;;;;;;6.61;100.00;99642.13;15299981;19;20013;-56
2024/01/29 09:40:05;;;;;;;1.75;0.80;;;;;;;6.73;100.00;99635.91;15304995;19;20034;-57
2024/01/29 09:45:35;;;;;;;0.85;0.70;;;;;;;6.93;100.00;99639.88;15304544;19;20062;-58
2024/01/29 09:51:02;;;;;;;0.90;0.60;;;;;;;7.04;100.00;99646.31;15296166;19;20081;-56
2024/01/29 09:56:27;;;;;;;1.05;0.80;;;;;;;7.21;100.00;99639.75;15299757;19;20027;-55
2024/01/29 10:01:54;;;;;;;0.80;0.65;;;;;;;7.37;100.00;99647.53;15292799;19;20489;-55
2024/01/29 10:07:20;;;;;;;0.98;0.85;;;;;;;7.51;100.00;99650.09;15291449;19;20017;-56
2024/01/29 10:12:45;;;;;;;0.80;0.70;;;;;;;7.68;100.00;99646.16;15291977;19;20474;-58
2024/01/29 10:18:16;;;;;;;1.02;0.93;;;;;;;7.84;100.00;99642.34;15295974;19;20039;-57
2024/01/29 10:23:43;;;;;;;1.13;0.90;;;;;;;8.02;100.00;99657.09;15292401;19;20024;-57
2024/01/29 10:29:10;;;;;;;1.10;1.00;;;;;;;8.16;100.00;99656.03;15293161;19;20030;-56
2024/01/29 10:34:37;;;;;;;0.75;0.73;;;;;;;8.30;100.00;99657.69;15292967;19;20018;-55
2024/01/29 10:40:03;;;;;;;1.42;1.13;;;;;;;8.43;100.00;99652.25;15287769;19;20019;-58
2024/01/29 10:45:28;;;;;;;2.60;0.90;;;;;;;8.59;100.00;99643.88;15292106;19;20086;-57
2024/01/29 10:50:58;;;;;;;1.92;0.98;;;;;;;8.76;100.00;99647.13;15290646;19;20505;-59
2024/01/29 10:56:24;;;;;;;1.10;1.00;;;;;;;8.92;100.00;99636.84;15293812;19;20018;-59
2024/01/29 11:01:52;;;;;;;1.08;0.98;;;;;;;9.08;100.00;99630.28;15287664;19;20025;-58
2024/01/29 11:07:29;;;;;;;1.35;0.77;;;;;;;9.22;100.00;99643.47;15290522;19;20082;-58
2024/01/29 11:12:56;;;;;;;1.25;1.08;;;;;;;9.36;100.00;99631.59;15282348;19;20021;-56
2024/01/29 11:18:21;;;;;;;1.15;0.90;;;;;;;9.45;100.00;99621.94;15293530;19;20022;-57
2024/01/29 11:23:49;;;;;;;1.30;0.85;;;;;;;9.54;100.00;99615.81;15284816;19;20015;-59
2024/01/29 11:29:17;;;;;;;1.10;0.90;;;;;;;9.60;100.00;99609.06;15288337;19;20018;-57
2024/01/29 11:34:42;;;;;;;1.23;0.82;;;;;;;9.66;100.00;99613.09;15287912;19;20408;-57
2024/01/29 11:40:09;;;;;;;1.15;0.80;;;;;;;9.81;100.00;99608.28;15289875;19;20850;-57
2024/01/29 11:45:38;;;;;;;1.65;1.02;;;;;;;9.97;100.00;99607.84;15282879;19;20029;-57
2024/01/29 11:51:04;;;;;;;2.30;1.00;;;;;;;10.07;100.00;99600.72;15288138;19;20018;-56
2024/01/29 11:56:31;;;;;;;1.73;0.73;;;;;;;10.21;100.00;99591.47;15290093;19;20093;-58
2024/01/29 12:01:56;;;;;;;1.23;0.93;;;;;;;10.35;100.00;99597.53;15285799;19;20077;-57
2024/01/29 12:07:21;;;;;;;1.25;1.08;;;;;;;10.46;100.00;99581.34;15290114;19;20015;-56
2024/01/29 12:12:48;;;;;;;1.63;1.15;;;;;;;10.55;100.00;99582.38;15282658;19;20018;-57
2024/01/29 12:18:19;;;;;;;1.63;0.85;;;;;;;10.63;100.00;99577.19;15281504;19;20035;-57
2024/01/29 12:23:43;;;;;;;2.20;1.40;;;;;;;10.74;100.00;99568.16;15284617;19;20018;-58
2024/01/29 12:29:14;;;;;;;2.38;1.10;;;;;;;10.90;100.00;99559.56;15283699;19;20014;-54
2024/01/29 12:34:38;;;;;;;2.60;1.30;;;;;;;11.04;100.00;99552.97;15288374;19;20274;-56
2024/01/29 12:40:04;;;;;;;1.77;0.95;;;;;;;11.12;100.00;99550.44;15287109;19;20029;-57
2024/01/29 12:45:31;;;;;;;3.53;0.80;;;;;;;11.25;100.00;99553.75;15289084;19;20022;-57
2024/01/29 12:50:57;;;;;;;1.60;0.95;;;;;;;11.39;100.00;99555.19;15277411;19;20019;-57
2024/01/29 12:56:21;;;;;;;0.80;0.80;;;;;;;11.49;100.00;99557.06;15286428;19;20024;-58
2024/01/29 13:01:49;;;;;;;1.10;0.80;;;;;;;11.59;100.00;99559.78;15275227;19;20494;-52
2024/01/29 13:07:14;;;;;;;1.23;0.80;;;;;;;11.63;100.00;99550.41;15285209;19;20491;-54
2024/01/29 13:12:39;;;;;;;0.80;0.80;;;;;;;11.68;100.00;99558.94;15277988;19;20022;-53
2024/01/29 13:18:06;;;;;;;0.77;0.70;;;;;;;11.72;100.00;99560.38;15285481;19;20543;-55
2024/01/29 13:23:31;;;;;;;2.28;1.00;;;;;;;11.85;100.00;99555.53;15277873;19;20034;-63
2024/01/29 13:28:55;;;;;;;1.33;1.00;;;;;;;11.92;100.00;99560.38;15282209;19;20367;-54
2024/01/29 13:34:23;;;;;;;1.35;1.00;;;;;;;11.90;100.00;99565.91;15283789;19;20098;-55
2024/01/29 13:39:47;;;;;;;2.55;0.82;;;;;;;11.94;100.00;99561.91;15280713;19;20018;-57
2024/01/29 13:45:12;;;;;;;1.55;1.10;;;;;;;12.02;100.00;99561.25;15275884;19;20021;-55
2024/01/29 13:50:39;;;;;;;1.30;0.98;;;;;;;12.12;100.00;99562.09;15278880;19;20021;-54
2024/01/29 13:56:04;;;;;;;2.00;1.23;;;;;;;12.24;100.00;99560.09;15277370;19;20077;-53
2024/01/29 14:01:28;;;;;;;1.40;1.20;;;;;;;12.38;100.00;99555.25;15279856;19;20028;-52
2024/01/29 14:07:01;;;;;;;2.45;1.10;;;;;;;12.42;100.00;99554.81;15282362;19;20021;-52
2024/01/29 14:12:25;;;;;;;1.52;1.25;;;;;;;12.48;100.00;99553.38;15287572;19;20021;-56
2024/01/29 14:17:50;;;;;;;1.98;1.42;;;;;;;12.56;100.00;99558.06;15293315;19;20015;-53
2024/01/29 14:23:17;;;;;;;1.55;1.27;;;;;;;12.59;100.00;99557.75;15296027;19;20086;-53
2024/01/29 14:28:42;;;;;;;1.88;1.30;;;;;;;12.62;100.00;99565.56;15291250;19;20082;-55
2024/01/29 14:34:06;;;;;;;2.13;1.30;;;;;;;12.71;100.00;99571.97;15299101;19;20010;-54
2024/01/29 14:39:35;;;;;;;2.42;1.50;;;;;;;12.73;100.00;99575.38;15296235;19;20492;-57
2024/01/29 14:44:59;;;;;;;2.88;1.60;;;;;;;12.59;100.00;99582.06;15292561;19;20018;-55
2024/01/29 14:50:24;;;;;;;2.05;1.52;;;;;;;12.61;100.00;99583.66;15292611;19;20019;-55
2024/01/29 14:55:51;;;;;;;3.80;1.27;;;;;;;12.57;100.00;99579.53;15296798;19;20489;-55
2024/01/29 15:01:16;;;;;;;1.83;1.40;;;;;;;12.49;100.00;99572.16;15279449;19;20471;-52
2024/01/29 15:06:40;;;;;;;2.58;1.50;;;;;;;12.21;100.00;99575.75;15293003;19;20681;-55
2024/01/29 15:12:11;;;;;;;1.70;1.38;;;;;;;11.88;100.00;99582.25;15289026;19;20710;-53
2024/01/29 15:17:35;;;;;;;2.25;1.40;;;;;;;11.61;100.00;99584.78;15268527;19;20035;-50
2024/01/29 15:23:00;;;;;;;2.25;1.35;;;;;;;11.26;100.00;99581.56;15288309;19;20017;-54
2024/01/29 15:28:27;;;;;;;1.92;1.50;;;;;;;10.90;100.00;99581.13;15290745;19;20481;-56
2024/01/29 15:33:53;;;;;;;2.63;1.40;;;;;;;10.56;100.00;99579.56;15288818;19;20006;-53
2024/01/29 15:39:17;;;;;;;1.42;1.30;;;;;;;10.30;100.00;99587.13;15286196;19;20021;-54
2024/01/29 15:44:46;;;;;;;2.03;1.50;;;;;;;10.02;100.00;99581.41;15282471;19;20019;-54
2024/01/29 15:50:18;;;;;;;2.35;1.75;;;;;;;9.81;100.00;99578.66;15288970;19;20011;-55
2024/01/29 15:55:43;;;;;;;2.88;1.40;;;;;;;9.56;100.00;99581.56;15290664;19;20014;-54
2024/01/29 16:01:10;;;;;;;1.42;1.23;;;;;;;9.37;100.00;99586.72;15287656;19;20021;-55
2024/01/29 16:06:35;;;;;;;2.75;1.60;;;;;;;9.21;100.00;99598.75;15290953;19;20345;-55
2024/01/29 16:12:00;;;;;;;3.13;1.50;;;;;;;9.07;100.00;99585.56;15285116;19;20913;-56
2024/01/29 16:17:28;;;;;;;1.95;1.45;;;;;;;8.84;100.00;99601.69;15290271;19;20053;-55
2024/01/29 16:22:52;;;;;;;1.80;1.30;;;;;;;8.71;100.00;99600.94;15286065;19;20492;-52
2024/01/29 16:28:17;;;;;;;2.13;1.35;;;;;;;8.55;100.00;99602.13;15288293;19;20017;-53
2024/01/29 16:33:44;;;;;;;3.33;1.25;;;;;;;8.46;100.00;99606.34;15282343;19;20556;-55
2024/01/29 16:39:10;;;;;;;2.15;1.40;;;;;;;8.36;100.00;99618.75;15284477;19;20107;-56
2024/01/29 16:44:34;;;;;;;3.80;2.70;;;;;;;8.30;100.00;99619.25;15284787;19;20010;-59
2024/01/29 16:50:08;;;;;;;1.98;1.30;;;;;;;8.17;100.00;99630.06;15282426;19;20085;-54
2024/01/29 16:55:34;;;;;;;2.40;1.70;;;;;;;8.00;100.00;99626.81;15286682;19;20019;-56
2024/01/29 17:00:58;;;;;;;1.90;1.70;;;;;;;7.90;100.00;99638.34;15285632;19;20035;-58
2024/01/29 17:06:26;;;;;;;1.92;1.50;;;;;;;7.76;100.00;99639.38;15275767;19;20029;-56
2024/01/29 17:11:51;;;;;;;2.33;1.67;;;;;;;7.67;100.00;99638.22;15279309;19;20092;-58
2024/01/29 17:17:16;;;;;;;1.73;1.40;;;;;;;7.54;100.00;99639.09;15286411;19;20037;-52
2024/01/29 17:22:43;;;;;;;4.22;1.20;;;;;;;7.43;100.00;99644.41;15282587;19;20044;-55
2024/01/29 17:28:08;;;;;;;1.45;1.20;;;;;;;7.35;100.00;99633.38;15284599;19;20042;-58
2024/01/29 17:33:33;;;;;;;1.88;1.40;;;;;;;7.30;100.00;99638.19;15286731;19;20029;-52
2024/01/29 17:39:09;;;;;;;2.85;1.58;;;;;;;7.22;100.00;99639.63;15272882;19;20022;-58
2024/01/29 17:44:35;;;;;;;2.55;1.50;;;;;;;7.14;100.00;99647.38;15281383;19;20024;-57
2024/01/29 17:50:08;;;;;;;2.45;1.45;;;;;;;7.06;100.00;99647.03;15280261;19;20026;-55
2024/01/29 17:55:36;;;;;;;4.38;1.50;;;;;;;6.97;100.00;99645.88;15307216;19;20022;-58
2024/01/29 18:01:01;;;;;;;1.60;1.45;;;;;;;7.00;100.00;99647.47;15296839;19;20093;-55
2024/01/29 18:06:26;;;;;;;3.75;1.50;;;;;;;6.97;100.00;99651.22;15293436;19;20486;-56
2024/01/29 18:11:55;;;;;;;2.00;1.50;;;;;;;6.92;100.00;99653.38;15286104;19;20006;-54
2024/01/29 18:17:22;;;;;;;2.70;1.70;;;;;;;6.89;100.00;99658.94;15297472;19;20022;-59
2024/01/29 18:22:46;;;;;;;2.80;1.80;;;;;;;6.86;100.00;99662.69;15296089;19;20010;-58
2024/01/29 18:28:14;;;;;;;2.47;1.55;;;;;;;6.81;100.00;99661.28;15292168;19;20257;-58
2024/01/29 18:33:38;;;;;;;2.75;1.80;;;;;;;6.74;100.00;99667.09;15290652;19;20018;-54
2024/01/29 18:39:03;;;;;;;2.13;1.70;;;;;;;6.71;100.00;99663.75;15291195;19;20381;-58
2024/01/29 18:44:33;;;;;;;2.47;1.60;;;;;;;6.69;100.00;99661.19;15282086;19;20014;-55
2024/01/29 18:50:04;;;;;;;2.45;1.55;;;;;;;6.64;100.00;99660.66;15294087;19;20554;-57
2024/01/29 18:55:29;;;;;;;2.70;1.47;;;;;;;6.60;100.00;99670.69;15298601;19;20074;-58
2024/01/29 19:00:56;;;;;;;3.05;1.52;;;;;;;6.53;100.00;99676.56;15294059;19;20349;-54
2024/01/29 19:06:21;;;;;;;4.05;2.30;;;;;;;6.50;100.00;99674.97;15294061;19;20009;-58
2024/01/29 19:11:47;;;;;;;2.78;1.73;;;;;;;6.45;100.00;99691.34;15289314;19;20014;-57
2024/01/29 19:17:15;;;;;;;2.20;1.58;;;;;;;6.44;100.00;99678.91;15287212;19;20107;-58
2024/01/29 19:22:39;;;;;;;2.85;1.50;;;;;;;6.47;100.00;99680.53;15282256;19;20015;-59
2024/01/29 19:28:05;;;;;;;3.05;1.92;;;;;;;6.36;100.00;99675.91;15290914;19;20094;-58
2024/01/29 19:33:33;;;;;;;2.85;1.90;;;;;;;6.34;100.00;99677.84;15297084;19;20018;-57
2024/01/29 19:38:58;;;;;;;2.85;1.98;;;;;;;6.26;100.00;99683.69;15294707;19;20520;-56
2024/01/29 19:44:23;;;;;;;3.17;1.80;;;;;;;6.19;100.00;99685.06;15295152;19;20432;-52
2024/01/29 19:49:55;;;;;;;4.15;2.13;;;;;;;6.15;100.00;99689.78;15286873;19;20028;-54
2024/01/29 19:55:20;;;;;;;2.85;1.90;;;;;;;6.13;100.00;99683.66;15296360;19;20082;-52
2024/01/29 20:00:45;;;;;;;2.78;2.08;;;;;;;6.12;100.00;99691.78;15294308;19;20039;-56
2024/01/29 20:06:14;;;;;;;2.47;2.05;;;;;;;6.10;100.00;99689.22;15293541;19;20018;-55
2024/01/29 20:11:39;;;;;;;3.45;2.20;;;;;;;6.05;100.00;99691.34;15289084;19;20039;-57
2024/01/29 20:17:04;;;;;;;3.50;2.22;;;;;;;6.03;100.00;99692.38;15293309;19;20014;-60
2024/01/29 20:22:32;;;;;;;3.00;2.10;;;;;;;5.99;100.00;99697.06;15286483;19;20028;-52
2024/01/29 20:27:56;;;;;;;4.07;2.00;;;;;;;5.92;100.00;99696.59;15294285;19;20018;-56
2024/01/29 20:33:22;;;;;;;3.47;1.90;;;;;;;5.88;100.00;99696.91;15294358;19;20032;-57
2024/01/29 20:38:50;;;;;;;2.90;1.90;;;;;;;5.78;100.00;99705.53;15290410;19;20788;-57
2024/01/29 20:44:16;;;;;;;2.55;1.90;;;;;;;5.69;100.00;99698.09;15291781;19;20011;-56
2024/01/29 20:49:48;;;;;;;5.10;2.00;;;;;;;5.57;100.00;99699.72;15288703;19;20401;-57
2024/01/29 20:55:16;;;;;;;2.73;1.83;;;;;;;5.54;100.00;99695.44;15287113;19;20066;-56
2024/01/29 21:00:42;;;;;;;2.60;1.70;;;;;;;5.55;100.00;99699.84;15290835;19;20070;-58
2024/01/29 21:06:07;;;;;;;6.03;1.95;;;;;;;5.49;100.00;99697.53;15289300;19;20019;-53
2024/01/29 21:11:34;;;;;;;2.65;1.80;;;;;;;5.47;100.00;99691.41;15288679;19;20094;-58
2024/01/29 21:16:59;;;;;;;3.92;1.77;;;;;;;5.42;100.00;99700.69;15293309;19;20417;-56
2024/01/29 21:22:23;;;;;;;2.47;1.80;;;;;;;5.38;100.00;99700.03;15297000;19;20029;-55
2024/01/29 21:27:51;;;;;;;2.90;1.95;;;;;;;5.39;100.00;99707.09;15295443;19;20014;-56
2024/01/29 21:33:15;;;;;;;3.28;1.80;;;;;;;5.40;100.00;99698.13;15304789;19;20018;-54
2024/01/29 21:38:40;;;;;;;4.20;1.77;;;;;;;5.39;100.00;99693.72;15305260;19;20587;-54
2024/01/29 21:44:07;;;;;;;3.58;1.75;;;;;;;5.35;100.00;99697.56;15305414;19;20481;-54
2024/01/29 21:49:38;;;;;;;2.42;1.70;;;;;;;5.37;100.00;99695.63;15298471;19;20017;-55
2024/01/29 21:55:03;;;;;;;3.27;1.90;;;;;;;5.36;100.00;99688.56;15304766;19;20034;-55
2024/01/29 22:00:30;;;;;;;4.00;1.65;;;;;;;5.41;100.00;99683.81;15296211;19;20484;-57
2024/01/29 22:05:55;;;;;;;2.22;1.80;;;;;;;5.38;100.00;99692.00;15297229;19;20086;-55
2024/01/29 22:11:19;;;;;;;2.45;1.70;;;;;;;5.24;100.00;99695.56;15297592;19;20820;-54
2024/01/29 22:16:47;;;;;;;1.98;1.58;;;;;;;5.20;100.00;99694.91;15299971;19;20022;-52
2024/01/29 22:22:13;;;;;;;2.38;1.70;;;;;;;5.07;100.00;99704.63;15298230;19;20645;-55
2024/01/29 22:27:42;;;;;;;2.58;1.92;;;;;;;5.06;100.00;99703.75;15297429;19;20020;-56
2024/01/29 22:33:10;;;;;;;2.53;1.50;;;;;;;5.09;100.00;99697.38;15302536;19;20549;-56
2024/01/29 22:38:34;;;;;;;3.53;1.55;;;;;;;5.07;100.00;99694.78;15302081;19;20089;-57
2024/01/29 22:43:58;;;;;;;2.42;1.50;;;;;;;5.04;100.00;99704.81;15291301;19;20018;-57
2024/01/29 22:49:32;;;;;;;2.15;1.70;;;;;;;4.99;100.00;99701.56;15293590;19;20357;-55
2024/01/29 22:54:57;;;;;;;2.30;1.70;;;;;;;4.94;100.00;99709.84;15299948;19;20031;-56
2024/01/29 23:00:27;;;;;;;2.00;1.45;;;;;;;4.96;100.00;99713.28;15293437;19;20014;-58
2024/01/29 23:05:55;;;;;;;2.55;1.75;;;;;;;4.92;100.00;99720.63;15290231;19;20014;-56
2024/01/29 23:11:20;;;;;;;2.35;1.50;;;;;;;4.97;100.00;99719.50;15294691;19;20014;-57
2024/01/29 23:16:44;;;;;;;2.42;1.58;;;;;;;4.93;100.00;99721.50;15302636;19;20025;-56
2024/01/29 23:22:11;;;;;;;2.95;1.63;;;;;;;4.83;100.00;99713.19;15297006;19;20026;-57
2024/01/29 23:27:36;;;;;;;3.88;1.70;;;;;;;4.81;100.00;99720.41;15296324;19;20089;-53
2024/01/29 23:33:02;;;;;;;2.83;2.00;;;;;;;4.84;100.00;99711.34;15290388;19;20018;-57
2024/01/29 23:38:30;;;;;;;3.55;1.70;;;;;;;4.82;100.00;99706.13;15298813;19;20094;-57
2024/01/29 23:43:55;;;;;;;2.17;1.52;;;;;;;4.75;100.00;99704.78;15288451;19;20078;-57
2024/01/29 23:49:19;;;;;;;4.05;2.15;;;;;;;4.76;100.00;99711.84;15332556;19;20017;-58
2024/01/29 23:54:47;;;;;;;2.60;1.70;;;;;;;4.86;100.00;99707.66;15290050;19;20054;-58
